Time;durP1;ratioP1;P1;durP2;ratioP2;P2;SDS_P1;SDS_P2;PMS_P1;PMS_P2;Temp;Humidity;BMP_temperature;BMP_pressure;BME280_temperature;BME280_humidity;BME280_pressure;Samples;Min_cycle;Max_cycle;Signal;HPM_P1;HPM_P2
2021/12/17 00:03:09;;;;;;;31.47;15.40;;;1.90;99.90;;;;;;5008600;28;20179;-74
2021/12/17 00:05:32;;;;;;;32.25;18.42;;;2.00;99.90;;;;;;5008502;28;20432;-74
2021/12/17 00:07:57;;;;;;;31.73;16.27;;;2.00;99.90;;;;;;5008532;28;20294;-74
2021/12/17 00:10:23;;;;;;;29.37;17.63;;;2.00;99.90;;;;;;5008412;28;20187;-74
2021/12/17 00:12:51;;;;;;;30.30;17.30;;;2.00;99.90;;;;;;5007182;28;20463;-74
2021/12/17 00:15:17;;;;;;;31.92;15.75;;;2.10;99.90;;;;;;5008420;28;20178;-74
2021/12/17 00:17:53;;;;;;;34.10;17.40;;;2.10;99.90;;;;;;5008359;28;20208;-74
2021/12/17 00:49:49;;;;;;;27.83;15.70;;;2.40;99.90;;;;;;5008381;28;20199;-74
2021/12/17 00:52:14;;;;;;;42.35;17.63;;;2.40;99.90;;;;;;5008302;28;20299;-74
2021/12/17 00:54:42;;;;;;;30.87;16.60;;;2.30;99.90;;;;;;5008259;28;20281;-75
2021/12/17 00:57:15;;;;;;;29.40;17.30;;;2.40;99.90;;;;;;5008197;28;20206;-74
2021/12/17 00:59:43;;;;;;;32.35;16.30;;;2.40;99.90;;;;;;5011104;28;20318;-74
2021/12/17 01:02:11;;;;;;;27.70;15.50;;;2.40;99.90;;;;;;5011854;28;20187;-74
2021/12/17 01:04:41;;;;;;;24.27;13.95;;;2.40;99.90;;;;;;5011910;28;20189;-74
2021/12/17 01:07:08;;;;;;;30.88;18.27;;;2.50;99.90;;;;;;5011656;28;20201;-74
2021/12/17 01:09:35;;;;;;;29.55;15.40;;;2.40;99.90;;;;;;5011551;28;20185;-75
2021/12/17 01:12:01;;;;;;;28.48;14.85;;;2.40;99.90;;;;;;5011718;28;20312;-74
2021/12/17 01:14:29;;;;;;;26.65;15.48;;;2.50;99.90;;;;;;5011587;28;20185;-74
2021/12/17 01:16:56;;;;;;;24.88;15.68;;;2.60;99.90;;;;;;5010391;28;20211;-74
2021/12/17 01:24:53;;;;;;;23.90;14.57;;;2.70;99.90;;;;;;5011982;28;20680;-74
2021/12/17 01:35:36;;;;;;;28.30;15.52;;;2.90;99.90;;;;;;5012178;28;20281;-75
2021/12/17 01:43:20;;;;;;;26.80;14.98;;;3.00;99.90;;;;;;5012003;28;20274;-74
2021/12/17 01:45:46;;;;;;;28.00;15.20;;;3.00;99.90;;;;;;5011618;28;20188;-74
2021/12/17 01:48:19;;;;;;;20.85;13.20;;;3.00;99.90;;;;;;5011537;28;20195;-74
2021/12/17 02:01:32;;;;;;;30.08;14.43;;;3.20;99.90;;;;;;5011125;28;20761;-74
2021/12/17 02:03:58;;;;;;;27.20;14.97;;;3.20;99.90;;;;;;5010763;28;20603;-73
2021/12/17 02:06:24;;;;;;;26.60;14.67;;;3.20;99.90;;;;;;5010413;28;20460;-75
2021/12/17 02:08:52;;;;;;;33.60;15.93;;;3.30;99.90;;;;;;5010552;28;20195;-75
2021/12/17 02:19:42;;;;;;;31.08;15.85;;;3.50;99.90;;;;;;5010617;28;20871;-75
2021/12/17 02:30:37;;;;;;;25.23;14.18;;;3.60;99.90;;;;;;5010344;28;20616;-74
2021/12/17 02:33:03;;;;;;;26.13;13.68;;;3.60;99.90;;;;;;5009067;28;20683;-74
2021/12/17 02:35:38;;;;;;;33.60;18.80;;;3.60;99.90;;;;;;5010018;28;20202;-74
2021/12/17 02:38:04;;;;;;;28.30;17.20;;;3.60;99.90;;;;;;5009957;28;20183;-74
2021/12/17 02:45:46;;;;;;;32.50;15.90;;;3.50;99.90;;;;;;5009805;28;20169;-74
2021/12/17 02:48:13;;;;;;;29.30;15.43;;;3.40;99.90;;;;;;5009755;28;20189;-75
2021/12/17 02:50:44;;;;;;;21.60;13.30;;;3.40;99.90;;;;;;5009510;28;20290;-74
2021/12/17 02:53:11;;;;;;;33.47;15.30;;;3.30;99.90;;;;;;5009762;28;20553;-74
2021/12/17 02:55:41;;;;;;;25.17;14.20;;;3.30;99.90;;;;;;5009639;28;20420;-73
2021/12/17 02:58:08;;;;;;;22.63;14.95;;;3.40;99.90;;;;;;5008135;28;20425;-76
2021/12/17 03:00:36;;;;;;;23.27;14.50;;;3.40;99.90;;;;;;5008159;28;20723;-74
2021/12/17 03:03:04;;;;;;;25.90;14.47;;;3.30;99.90;;;;;;5008070;28;20193;-74
2021/12/17 03:05:30;;;;;;;26.50;16.00;;;3.30;99.90;;;;;;5009780;28;20804;-74
2021/12/17 03:07:57;;;;;;;23.40;13.85;;;3.40;99.90;;;;;;5009269;28;20632;-75
2021/12/17 03:10:23;;;;;;;26.33;15.43;;;3.40;99.90;;;;;;5009389;28;20265;-75
2021/12/17 03:12:54;;;;;;;26.13;15.52;;;3.50;99.90;;;;;;5009378;28;20629;-75
2021/12/17 03:25:56;;;;;;;21.03;13.27;;;3.80;99.90;;;;;;5009171;28;20422;-75
2021/12/17 03:28:22;;;;;;;23.48;13.63;;;3.90;99.90;;;;;;5007858;28;20420;-75
2021/12/17 03:30:48;;;;;;;19.53;13.70;;;3.90;99.90;;;;;;5009204;28;20218;-76
2021/12/17 03:33:14;;;;;;;27.85;15.23;;;3.90;99.90;;;;;;5008995;28;20840;-74
2021/12/17 03:35:40;;;;;;;26.90;15.40;;;3.70;99.90;;;;;;5008913;28;20193;-75
2021/12/17 03:38:06;;;;;;;23.57;15.37;;;3.60;99.90;;;;;;5008943;28;20941;-75
2021/12/17 03:40:33;;;;;;;28.00;16.10;;;3.50;99.90;;;;;;5008983;28;20430;-74
2021/12/17 03:43:10;;;;;;;27.93;15.23;;;3.50;99.90;;;;;;5009008;28;21011;-75
2021/12/17 03:45:36;;;;;;;25.70;15.40;;;3.30;99.90;;;;;;5009068;28;20505;-74
2021/12/17 03:48:01;;;;;;;24.83;15.57;;;3.30;99.90;;;;;;5008849;28;20954;-75
2021/12/17 03:50:27;;;;;;;23.57;14.73;;;3.30;99.90;;;;;;5008660;28;20201;-74
2021/12/17 03:52:53;;;;;;;21.90;13.03;;;3.30;99.90;;;;;;5008230;28;20189;-74
2021/12/17 03:55:19;;;;;;;18.77;13.20;;;3.40;99.90;;;;;;5008830;28;20439;-74
2021/12/17 03:57:45;;;;;;;21.30;14.30;;;3.40;99.90;;;;;;5007111;28;20216;-74
2021/12/17 04:00:12;;;;;;;20.90;12.00;;;3.40;99.90;;;;;;5008767;28;20198;-74
2021/12/17 04:02:37;;;;;;;16.17;10.00;;;3.50;99.90;;;;;;5008586;28;20270;-74
2021/12/17 04:05:04;;;;;;;8.37;6.33;;;3.50;99.90;;;;;;5008920;28;20495;-74
2021/12/17 04:07:30;;;;;;;6.20;4.87;;;3.90;99.90;;;;;;5008709;28;20629;-75
2021/12/17 04:09:56;;;;;;;11.73;8.80;;;4.10;99.90;;;;;;5008515;28;20455;-75
2021/12/17 04:12:30;;;;;;;11.33;7.87;;;4.20;99.90;;;;;;5008525;28;20522;-75
2021/12/17 04:14:57;;;;;;;6.63;4.70;;;4.20;99.90;;;;;;5008652;28;20176;-75
2021/12/17 04:17:25;;;;;;;7.47;5.20;;;4.40;99.90;;;;;;5008330;28;20205;-75
2021/12/17 04:19:51;;;;;;;14.30;8.50;;;4.50;99.90;;;;;;5007096;28;20433;-74
2021/12/17 04:22:17;;;;;;;8.03;6.17;;;4.50;99.90;;;;;;5008562;28;20846;-74
2021/12/17 04:24:43;;;;;;;10.03;7.43;;;4.50;99.90;;;;;;5008801;28;20497;-74
2021/12/17 04:27:09;;;;;;;11.27;7.70;;;4.50;99.90;;;;;;5008530;28;20468;-74
2021/12/17 04:29:41;;;;;;;11.53;7.43;;;4.50;99.90;;;;;;5008485;28;20515;-75
2021/12/17 04:32:07;;;;;;;9.60;6.17;;;4.50;99.90;;;;;;5008634;28;20459;-74
2021/12/17 04:34:33;;;;;;;6.35;4.60;;;4.60;99.90;;;;;;5011510;28;20420;-74
2021/12/17 04:36:59;;;;;;;4.50;3.70;;;4.70;99.90;;;;;;5012329;28;20700;-74
2021/12/17 04:39:25;;;;;;;5.97;4.97;;;4.70;99.90;;;;;;5012581;28;20423;-74
2021/12/17 04:42:02;;;;;;;16.80;10.47;;;4.70;99.90;;;;;;5011132;28;20291;-74
2021/12/17 04:44:32;;;;;;;19.93;12.90;;;4.50;99.90;;;;;;5012220;28;20506;-74
2021/12/17 04:57:59;;;;;;;5.33;4.73;;;4.40;99.90;;;;;;5011934;28;20215;-76
2021/12/17 05:00:29;;;;;;;8.33;6.33;;;4.50;99.90;;;;;;5011930;28;20427;-75
2021/12/17 05:02:57;;;;;;;5.65;4.50;;;4.60;99.90;;;;;;5011783;28;20412;-76
2021/12/17 05:05:28;;;;;;;6.53;5.27;;;4.70;99.90;;;;;;5012035;28;20222;-76
2021/12/17 05:08:05;;;;;;;8.73;5.10;;;4.80;99.90;;;;;;5012059;28;20443;-76
2021/12/17 05:18:47;;;;;;;4.77;3.80;;;5.00;99.90;;;;;;5012502;28;20932;-75
2021/12/17 05:21:14;;;;;;;6.73;4.50;;;5.00;99.90;;;;;;5011964;28;20434;-76
2021/12/17 05:23:42;;;;;;;4.20;3.80;;;5.00;99.90;;;;;;5012303;28;20427;-75
2021/12/17 05:26:15;;;;;;;3.78;3.40;;;5.00;99.90;;;;;;5012138;28;20432;-76
2021/12/17 05:28:41;;;;;;;5.13;4.03;;;5.00;99.90;;;;;;5012377;28;20664;-75
2021/12/17 05:31:07;;;;;;;4.47;3.90;;;5.00;99.90;;;;;;5012169;28;20493;-74
2021/12/17 05:33:33;;;;;;;4.70;3.60;;;5.00;99.90;;;;;;5011865;28;20428;-76
2021/12/17 05:35:59;;;;;;;3.30;3.00;;;5.00;99.90;;;;;;5011802;28;20422;-76
2021/12/17 05:38:26;;;;;;;3.20;2.90;;;5.00;99.90;;;;;;5012245;28;20188;-76
2021/12/17 05:40:52;;;;;;;3.22;2.90;;;5.00;99.90;;;;;;5012027;28;20416;-74
2021/12/17 05:43:18;;;;;;;2.87;2.67;;;5.00;99.90;;;;;;5012575;28;20599;-76
2021/12/17 05:46:01;;;;;;;6.97;4.70;;;5.00;99.90;;;;;;5010568;28;20424;-76
2021/12/17 05:48:27;;;;;;;8.68;6.30;;;5.00;99.90;;;;;;5011004;28;20449;-74
2021/12/17 05:50:57;;;;;;;10.57;6.43;;;4.90;99.90;;;;;;5009445;28;20693;-76
2021/12/17 05:53:24;;;;;;;7.88;6.25;;;4.90;99.90;;;;;;5010787;28;20688;-76
2021/12/17 05:55:51;;;;;;;8.63;6.32;;;4.90;99.90;;;;;;5025893;28;20199;-76
2021/12/17 05:58:17;;;;;;;6.10;4.43;;;4.90;99.90;;;;;;5010959;28;20215;-75
2021/12/17 06:00:44;;;;;;;5.55;3.95;;;4.90;99.90;;;;;;5009716;28;20693;-76
2021/12/17 06:03:10;;;;;;;4.03;3.55;;;4.90;99.90;;;;;;5009414;28;20177;-76
2021/12/17 06:05:36;;;;;;;3.47;3.17;;;4.80;99.90;;;;;;5010927;28;20195;-76
2021/12/17 06:08:03;;;;;;;8.83;3.70;;;5.00;99.90;;;;;;5010543;28;20435;-76
2021/12/17 06:10:28;;;;;;;6.33;4.60;;;4.80;99.90;;;;;;5009156;28;20422;-76
2021/12/17 06:12:54;;;;;;;4.90;3.77;;;4.80;99.90;;;;;;5010445;28;20477;-76
2021/12/17 06:15:21;;;;;;;4.53;4.07;;;4.80;99.90;;;;;;5010576;28;20183;-76
2021/12/17 06:17:48;;;;;;;8.90;5.40;;;4.80;99.90;;;;;;5010557;28;20519;-76
2021/12/17 06:20:15;;;;;;;7.77;5.20;;;4.60;99.90;;;;;;5025318;28;21124;-75
2021/12/17 06:22:42;;;;;;;8.20;4.82;;;4.70;99.90;;;;;;5009993;28;20422;-76
2021/12/17 06:25:09;;;;;;;3.58;3.28;;;4.60;99.90;;;;;;5009797;28;20206;-76
2021/12/17 06:27:35;;;;;;;6.15;4.53;;;4.60;99.90;;;;;;5009711;28;20204;-75
2021/12/17 06:30:03;;;;;;;5.90;4.63;;;4.50;99.90;;;;;;5009819;28;20232;-75
2021/12/17 06:32:29;;;;;;;5.60;4.13;;;4.50;99.90;;;;;;5009475;28;20836;-76
2021/12/17 06:34:55;;;;;;;5.17;4.20;;;4.50;99.90;;;;;;5009783;28;20177;-76
2021/12/17 06:37:20;;;;;;;6.93;5.20;;;4.50;99.90;;;;;;5009366;28;20614;-75
2021/12/17 06:39:47;;;;;;;7.07;5.33;;;4.50;99.90;;;;;;5008199;28;20444;-76
2021/12/17 06:42:13;;;;;;;8.43;6.03;;;4.40;99.90;;;;;;5009392;28;20657;-75
2021/12/17 06:44:44;;;;;;;5.97;4.43;;;4.30;99.90;;;;;;5009703;28;20415;-75
2021/12/17 06:47:31;;;;;;;7.67;4.43;;;4.40;99.90;;;;;;5008822;28;20432;-76
2021/12/17 06:56:01;;;;;;;14.57;7.97;;;4.20;99.90;;;;;;5009107;28;20305;-76
2021/12/17 07:11:33;;;;;;;9.23;5.38;;;3.50;99.90;;;;;;5009048;28;20694;-76
2021/12/17 07:22:19;;;;;;;7.35;5.05;;;3.20;99.90;;;;;;5008580;28;20281;-76
2021/12/17 07:28:05;;;;;;;6.55;4.15;;;3.10;99.90;;;;;;5008573;28;20251;-76
2021/12/17 07:40:32;;;;;;;8.32;5.13;;;2.70;99.90;;;;;;5008302;28;20197;-75
2021/12/17 07:42:57;;;;;;;6.40;4.40;;;2.60;99.90;;;;;;5006527;28;20281;-76
2021/12/17 07:45:23;;;;;;;5.00;4.00;;;2.60;99.90;;;;;;5007908;28;20431;-75
2021/12/17 07:47:49;;;;;;;7.97;5.07;;;2.60;99.90;;;;;;5007747;28;20290;-75
2021/12/17 07:50:15;;;;;;;7.63;5.23;;;2.40;99.90;;;;;;5007859;28;20441;-75
2021/12/17 07:52:40;;;;;;;9.77;6.03;;;2.30;99.90;;;;;;5008134;28;20277;-75
2021/12/17 07:55:06;;;;;;;9.90;6.50;;;2.30;99.90;;;;;;5006833;28;20325;-76
2021/12/17 07:57:32;;;;;;;9.37;5.87;;;2.20;99.90;;;;;;5023229;28;20196;-76
2021/12/17 07:59:58;;;;;;;7.77;6.00;;;2.30;99.90;;;;;;5008244;28;20419;-76
2021/12/17 08:02:23;;;;;;;8.43;6.13;;;2.30;99.90;;;;;;4990402;28;20189;-76
2021/12/17 08:04:49;;;;;;;7.83;5.77;;;2.60;99.90;;;;;;5008214;28;20215;-76
2021/12/17 08:07:14;;;;;;;5.90;5.10;;;3.00;99.90;;;;;;5008848;28;20204;-76
2021/12/17 08:09:41;;;;;;;6.13;4.90;;;3.60;99.90;;;;;;5012212;28;20221;-76
2021/12/17 08:12:09;;;;;;;5.50;4.93;;;4.00;99.90;;;;;;5012158;28;20238;-76
2021/12/17 08:14:35;;;;;;;4.70;4.30;;;4.60;99.90;;;;;;5011868;28;20250;-76
2021/12/17 08:17:15;;;;;;;7.20;5.30;;;5.70;99.90;;;;;;5010651;28;20678;-77
2021/12/17 08:32:33;;;;;;;9.57;7.20;;;11.60;99.90;;;;;;5011440;28;21290;-77
2021/12/17 08:34:58;;;;;;;8.87;6.73;;;12.00;99.00;;;;;;5009774;28;20443;-77
2021/12/17 08:37:24;;;;;;;8.10;6.73;;;12.30;98.10;;;;;;5011255;28;20242;-77
2021/12/17 08:39:50;;;;;;;7.73;5.80;;;12.40;96.80;;;;;;5009517;28;20199;-77
2021/12/17 08:42:15;;;;;;;11.93;10.00;;;12.80;96.10;;;;;;5011312;28;20287;-77
2021/12/17 08:44:41;;;;;;;10.73;8.27;;;13.00;95.20;;;;;;5010966;28;20191;-77
2021/12/17 08:47:08;;;;;;;5.23;4.73;;;13.10;95.00;;;;;;5011119;28;20562;-77
2021/12/17 08:49:34;;;;;;;7.47;6.67;;;13.50;94.70;;;;;;5009535;28;20187;-77
2021/12/17 08:52:00;;;;;;;7.60;6.80;;;13.80;93.50;;;;;;5009204;28;20571;-77
2021/12/17 08:54:26;;;;;;;7.67;6.13;;;14.20;92.40;;;;;;5010993;28;20550;-76
2021/12/17 08:56:51;;;;;;;8.37;7.57;;;13.90;91.50;;;;;;5009395;28;21001;-76
2021/12/17 08:59:17;;;;;;;7.13;6.43;;;13.10;92.30;;;;;;5010878;28;20420;-76
2021/12/17 09:01:46;;;;;;;6.17;5.50;;;12.00;94.60;;;;;;5010562;28;20513;-76
2021/12/17 09:04:13;;;;;;;7.70;6.90;;;11.00;96.70;;;;;;5025214;28;20193;-76
2021/12/17 09:06:39;;;;;;;8.87;7.40;;;10.10;99.40;;;;;;5010541;28;20442;-76
2021/12/17 09:09:05;;;;;;;7.63;6.70;;;9.40;99.90;;;;;;5010758;28;20423;-77
2021/12/17 09:11:31;;;;;;;7.70;6.90;;;8.90;99.90;;;;;;5010682;28;20496;-76
2021/12/17 09:13:59;;;;;;;8.97;7.53;;;8.40;99.90;;;;;;5010443;28;21223;-76
2021/12/17 09:16:25;;;;;;;15.00;12.43;;;8.10;99.90;;;;;;5010331;28;20437;-76
2021/12/17 09:18:53;;;;;;;15.40;10.00;;;7.80;99.90;;;;;;5009708;28;20488;-76
2021/12/17 09:21:19;;;;;;;9.70;8.20;;;7.50;99.90;;;;;;5010196;28;20481;-76
2021/12/17 09:23:45;;;;;;;7.67;6.87;;;7.30;99.90;;;;;;5010042;28;20421;-76
2021/12/17 09:26:13;;;;;;;10.70;6.87;;;7.20;99.90;;;;;;5010195;28;20489;-76
2021/12/17 09:28:39;;;;;;;6.20;5.60;;;7.80;99.90;;;;;;5010049;28;20422;-76
2021/12/17 09:31:11;;;;;;;8.27;5.13;;;9.30;99.90;;;;;;5008511;28;20471;-76
2021/12/17 09:33:37;;;;;;;8.43;5.07;;;11.20;99.90;;;;;;5008514;28;20187;-76
2021/12/17 09:36:04;;;;;;;6.27;5.30;;;13.40;98.20;;;;;;5008622;28;20920;-76
2021/12/17 09:38:30;;;;;;;8.30;6.30;;;14.40;92.70;;;;;;5018178;28;20439;-75
2021/12/17 09:40:56;;;;;;;9.67;8.27;;;14.80;92.00;;;;;;5022181;28;20467;-75
2021/12/17 09:43:22;;;;;;;8.50;7.60;;;15.60;92.60;;;;;;5009891;28;20424;-75
2021/12/17 09:45:48;;;;;;;8.37;6.43;;;17.00;90.00;;;;;;5010263;28;20415;-75
2021/12/17 09:48:14;;;;;;;6.73;6.13;;;17.80;80.90;;;;;;5009746;28;20182;-75
2021/12/17 09:50:40;;;;;;;7.23;6.53;;;17.90;77.30;;;;;;5009848;28;20196;-75
2021/12/17 09:53:06;;;;;;;9.20;6.57;;;18.20;77.00;;;;;;5008021;28;20476;-76
2021/12/17 09:55:32;;;;;;;6.10;5.50;;;19.20;75.30;;;;;;5024703;28;20456;-75
2021/12/17 09:57:57;;;;;;;5.70;5.20;;;19.30;73.00;;;;;;5009655;28;20202;-76
2021/12/17 10:00:26;;;;;;;6.20;5.60;;;20.00;69.70;;;;;;5009589;28;20945;-76
2021/12/17 10:02:55;;;;;;;5.70;5.20;;;20.50;67.10;;;;;;5007684;28;20201;-76
2021/12/17 10:05:32;;;;;;;6.17;5.37;;;21.00;64.20;;;;;;5009382;28;20439;-76
2021/12/17 10:08:03;;;;;;;5.70;5.20;;;20.70;63.00;;;;;;5009223;28;20903;-75
2021/12/17 10:10:40;;;;;;;5.70;5.20;;;21.40;60.60;;;;;;5007948;28;20433;-76
2021/12/17 10:13:21;;;;;;;6.83;5.40;;;21.70;60.00;;;;;;5009175;28;20558;-76
2021/12/17 10:15:50;;;;;;;6.30;5.70;;;22.30;59.10;;;;;;5009196;28;20416;-76
2021/12/17 10:18:17;;;;;;;6.40;5.90;;;22.50;58.30;;;;;;5009145;28;20420;-76
2021/12/17 10:20:55;;;;;;;6.77;6.17;;;22.90;56.70;;;;;;5008983;28;20420;-76
2021/12/17 10:23:22;;;;;;;6.10;5.70;;;23.20;54.90;;;;;;5008948;28;20499;-77
2021/12/17 10:25:48;;;;;;;5.60;5.13;;;23.40;54.30;;;;;;5008941;28;20448;-76
2021/12/17 10:28:15;;;;;;;5.23;4.83;;;23.80;53.80;;;;;;5008775;28;20479;-75
2021/12/17 10:30:43;;;;;;;6.50;5.33;;;24.10;52.00;;;;;;5007813;28;20425;-78
2021/12/17 10:33:14;;;;;;;6.40;5.50;;;24.20;51.40;;;;;;5008765;28;20466;-76
2021/12/17 10:35:44;;;;;;;5.80;5.40;;;24.40;51.30;;;;;;5008962;28;20570;-76
2021/12/17 10:38:14;;;;;;;8.47;7.57;;;24.40;50.50;;;;;;5008886;28;20428;-76
2021/12/17 10:40:49;;;;;;;6.67;6.07;;;23.90;50.90;;;;;;5008951;28;20409;-76
2021/12/17 10:43:27;;;;;;;6.40;5.80;;;23.20;51.40;;;;;;5009011;28;20919;-76
2021/12/17 10:46:04;;;;;;;5.93;5.43;;;22.70;52.30;;;;;;5007310;28;20428;-76
2021/12/17 10:51:28;;;;;;;5.93;5.43;;;23.40;52.20;;;;;;5008114;28;20554;-76
2021/12/17 10:54:01;;;;;;;8.23;7.47;;;22.90;52.40;;;;;;5008474;28;20843;-76
2021/12/17 10:56:32;;;;;;;6.60;6.00;;;22.50;52.30;;;;;;5008587;28;20438;-76
2021/12/17 10:59:00;;;;;;;6.30;5.70;;;22.50;52.50;;;;;;5008538;28;20412;-76
2021/12/17 11:01:45;;;;;;;8.40;6.53;;;22.90;52.80;;;;;;5023528;28;20554;-76
2021/12/17 11:04:17;;;;;;;6.53;5.60;;;23.30;51.50;;;;;;5008348;28;20466;-76
2021/12/17 11:07:06;;;;;;;5.70;5.30;;;23.10;51.00;;;;;;5007972;28;20459;-76
2021/12/17 11:09:55;;;;;;;6.63;6.13;;;23.00;51.80;;;;;;5007889;28;20510;-76
2021/12/17 11:12:29;;;;;;;6.17;5.67;;;23.00;51.30;;;;;;5008480;28;20968;-77
2021/12/17 11:15:23;;;;;;;10.33;6.33;;;22.70;49.90;;;;;;5008888;28;20423;-77
2021/12/17 11:17:53;;;;;;;6.20;5.70;;;22.60;52.30;;;;;;5007270;28;20459;-78
2021/12/17 11:20:28;;;;;;;6.30;5.70;;;22.80;51.60;;;;;;5008777;28;20416;-78
2021/12/17 11:22:57;;;;;;;8.00;6.97;;;21.70;51.20;;;;;;5023143;28;20512;-76
2021/12/17 11:25:24;;;;;;;15.73;8.00;;;21.80;52.30;;;;;;5008945;28;20454;-78
2021/12/17 11:27:51;;;;;;;26.63;15.20;;;21.90;52.60;;;;;;5007895;28;20451;-77
2021/12/17 11:30:22;;;;;;;12.90;7.00;;;21.40;52.50;;;;;;5006980;28;20528;-77
2021/12/17 11:32:50;;;;;;;6.67;6.13;;;21.30;53.30;;;;;;5007946;28;20551;-77
2021/12/17 11:35:19;;;;;;;6.13;5.63;;;21.30;53.40;;;;;;5007837;28;20448;-77
2021/12/17 11:37:47;;;;;;;7.17;6.47;;;21.00;54.20;;;;;;5007801;28;20467;-77
2021/12/17 11:40:26;;;;;;;6.23;5.60;;;21.00;54.10;;;;;;5006551;28;20457;-76
2021/12/17 11:43:14;;;;;;;9.03;5.90;;;21.20;54.00;;;;;;5022180;28;20428;-76
2021/12/17 11:45:40;;;;;;;8.13;7.23;;;20.90;53.80;;;;;;5007652;28;20424;-77
2021/12/17 11:48:22;;;;;;;10.90;7.40;;;21.30;54.40;;;;;;5007650;28;20452;-77
2021/12/17 11:51:13;;;;;;;7.50;6.80;;;20.90;53.90;;;;;;5007520;28;20463;-76
2021/12/17 11:53:54;;;;;;;6.60;6.00;;;20.70;54.30;;;;;;5006289;28;20502;-76
2021/12/17 11:56:41;;;;;;;9.00;6.53;;;20.30;55.50;;;;;;5008107;28;20452;-77
2021/12/17 11:59:27;;;;;;;8.00;6.43;;;19.90;56.10;;;;;;5007418;28;20922;-79
2021/12/17 12:02:05;;;;;;;11.13;9.07;;;19.40;56.70;;;;;;5008280;28;20489;-76
2021/12/17 12:04:33;;;;;;;9.97;7.70;;;18.70;58.40;;;;;;5007662;28;20516;-76
2021/12/17 12:07:04;;;;;;;10.20;9.10;;;17.70;59.90;;;;;;5007618;28;20444;-76
2021/12/17 12:10:15;;;;;;;10.13;8.40;;;16.60;65.10;;;;;;5007565;28;20422;-77
2021/12/17 12:12:47;;;;;;;10.53;7.87;;;15.40;71.30;;;;;;4965158;28;20611;-73
2021/12/17 12:15:24;;;;;;;9.63;8.50;;;14.20;79.70;;;;;;4965731;28;20431;-77
2021/12/17 12:18:06;;;;;;;15.00;8.13;;;13.60;85.40;;;;;;4991555;28;20455;-76
2021/12/17 12:20:43;;;;;;;10.83;8.33;;;13.30;87.70;;;;;;5007450;28;20425;-77
2021/12/17 12:23:16;;;;;;;10.13;8.30;;;12.40;92.00;;;;;;5006985;28;20448;-77
2021/12/17 12:25:42;;;;;;;11.20;8.43;;;12.10;93.20;;;;;;5006874;28;20422;-77
2021/12/17 12:28:10;;;;;;;10.37;7.53;;;11.80;94.90;;;;;;5007374;28;21067;-76
2021/12/17 12:30:42;;;;;;;7.83;6.80;;;11.40;96.40;;;;;;5021798;28;20482;-76
2021/12/17 12:33:10;;;;;;;7.80;6.60;;;11.20;96.60;;;;;;5005386;28;20472;-76
2021/12/17 12:35:36;;;;;;;7.60;6.33;;;10.90;97.90;;;;;;5007094;28;20427;-75
2021/12/17 12:38:20;;;;;;;6.37;5.73;;;10.50;99.70;;;;;;5006701;28;20445;-76
2021/12/17 12:40:56;;;;;;;6.97;6.03;;;10.10;99.90;;;;;;5007362;28;20431;-76
2021/12/17 12:43:32;;;;;;;6.90;6.03;;;10.00;99.90;;;;;;5007118;28;20941;-76
2021/12/17 12:45:59;;;;;;;7.27;6.10;;;9.80;99.90;;;;;;5007043;28;20452;-75
2021/12/17 12:48:36;;;;;;;6.50;5.47;;;9.80;99.90;;;;;;5005597;28;20431;-75
2021/12/17 12:51:15;;;;;;;8.80;6.20;;;9.70;99.90;;;;;;5021517;28;20452;-76
2021/12/17 12:54:08;;;;;;;7.83;5.90;;;9.50;99.90;;;;;;5005685;28;20476;-78
2021/12/17 12:56:38;;;;;;;6.43;5.67;;;9.40;99.90;;;;;;5008785;28;21278;-77
2021/12/17 12:59:06;;;;;;;5.53;5.00;;;9.50;99.90;;;;;;5010428;28;20504;-75
2021/12/17 13:01:32;;;;;;;11.33;6.53;;;9.80;99.90;;;;;;5010188;28;20981;-76
2021/12/17 13:03:58;;;;;;;8.40;5.93;;;10.20;99.90;;;;;;5008460;28;20528;-76
2021/12/17 13:06:25;;;;;;;6.67;5.70;;;10.80;99.90;;;;;;5011131;28;20232;-78
2021/12/17 13:08:56;;;;;;;7.10;5.90;;;11.90;98.50;;;;;;4995556;28;20312;-78
2021/12/17 13:11:23;;;;;;;8.97;5.90;;;12.50;96.20;;;;;;5015248;28;20537;-77
2021/12/17 13:13:54;;;;;;;6.60;5.90;;;13.30;94.40;;;;;;5016496;28;20434;-77
2021/12/17 13:16:35;;;;;;;6.70;6.00;;;14.20;92.80;;;;;;5017213;28;20431;-78
2021/12/17 13:24:25;;;;;;;8.87;6.43;;;15.70;86.00;;;;;;5014078;28;20428;-77
2021/12/17 13:27:11;;;;;;;7.00;6.27;;;16.10;83.20;;;;;;5013038;28;20537;-78
2021/12/17 13:29:40;;;;;;;7.10;6.40;;;16.00;82.70;;;;;;5013102;28;20430;-77
2021/12/17 13:32:11;;;;;;;11.50;8.90;;;16.10;82.40;;;;;;5013219;28;20473;-77
2021/12/17 13:34:44;;;;;;;9.50;7.77;;;15.90;82.10;;;;;;5012494;28;20457;-78
2021/12/17 13:37:16;;;;;;;7.63;6.83;;;15.60;82.00;;;;;;5011826;28;20995;-77
2021/12/17 13:39:49;;;;;;;7.90;7.07;;;15.90;82.80;;;;;;5012157;28;20442;-79
2021/12/17 13:42:20;;;;;;;7.60;6.67;;;16.10;80.50;;;;;;5015928;28;20473;-78
2021/12/17 13:44:56;;;;;;;7.13;6.37;;;15.80;81.20;;;;;;5030974;28;20452;-78
2021/12/17 13:47:33;;;;;;;8.60;5.83;;;15.40;81.10;;;;;;5014145;28;20462;-78
2021/12/17 13:50:13;;;;;;;9.67;7.03;;;14.50;84.80;;;;;;5013899;28;20443;-78
2021/12/17 13:52:44;;;;;;;9.23;6.53;;;13.60;90.00;;;;;;5012714;28;20467;-80
2021/12/17 13:55:13;;;;;;;9.70;7.03;;;12.70;92.20;;;;;;5013339;28;20450;-76
2021/12/17 13:57:41;;;;;;;8.97;7.03;;;12.00;94.30;;;;;;5012419;28;20468;-78
2021/12/17 14:00:09;;;;;;;7.67;6.87;;;11.20;96.90;;;;;;5014006;28;20420;-78
2021/12/17 14:02:36;;;;;;;9.17;7.63;;;10.60;98.90;;;;;;5012985;28;20442;-77
2021/12/17 14:05:07;;;;;;;7.20;6.50;;;10.30;99.90;;;;;;5014008;28;20424;-77
2021/12/17 14:07:35;;;;;;;9.23;7.27;;;9.70;99.90;;;;;;5012215;28;20450;-78
2021/12/17 14:10:04;;;;;;;14.40;8.00;;;9.30;99.90;;;;;;5011242;28;20457;-77
2021/12/17 14:12:33;;;;;;;13.40;9.17;;;9.20;99.90;;;;;;5011921;28;20551;-77
2021/12/17 14:15:07;;;;;;;9.40;8.30;;;8.90;99.90;;;;;;4994392;28;20940;-77
2021/12/17 14:17:43;;;;;;;9.20;7.77;;;8.50;99.90;;;;;;5014289;28;20924;-77
2021/12/17 14:20:23;;;;;;;9.40;7.00;;;8.20;99.90;;;;;;5027543;28;20430;-77
2021/12/17 14:22:51;;;;;;;7.43;6.60;;;8.20;99.90;;;;;;5013777;28;20446;-78
2021/12/17 14:25:34;;;;;;;8.97;7.33;;;8.00;99.90;;;;;;5013734;28;20469;-77
2021/12/17 14:28:11;;;;;;;49.83;13.63;;;7.80;99.90;;;;;;5012299;28;20492;-76
2021/12/17 14:30:38;;;;;;;29.13;11.97;;;7.80;99.90;;;;;;5010572;28;20534;-77
2021/12/17 14:33:10;;;;;;;31.53;12.23;;;7.60;99.90;;;;;;5008676;28;20495;-77
2021/12/17 14:35:59;;;;;;;22.07;10.37;;;7.50;99.90;;;;;;5011251;28;20666;-75
2021/12/17 14:38:34;;;;;;;16.93;8.40;;;7.30;99.90;;;;;;5003717;28;20431;-77
2021/12/17 14:41:02;;;;;;;10.63;7.50;;;7.30;99.90;;;;;;5008166;28;20436;-77
2021/12/17 14:43:49;;;;;;;11.73;8.60;;;7.20;99.90;;;;;;5008902;28;20420;-77
2021/12/17 14:46:23;;;;;;;10.90;8.43;;;7.20;99.90;;;;;;5010093;28;20827;-77
2021/12/17 14:57:12;;;;;;;9.90;7.30;;;7.10;99.90;;;;;;5009992;28;20410;-77
2021/12/17 15:03:21;;;;;;;11.57;7.80;;;6.20;99.90;;;;;;5013121;28;20408;-77
2021/12/17 15:05:46;;;;;;;11.70;8.53;;;6.10;99.90;;;;;;5012873;28;20470;-78
2021/12/17 15:08:13;;;;;;;11.00;8.17;;;6.00;99.90;;;;;;5027785;28;20452;-77
2021/12/17 15:10:39;;;;;;;15.17;7.67;;;5.90;99.90;;;;;;5027701;28;20896;-77
2021/12/17 15:13:06;;;;;;;10.03;7.13;;;5.80;99.90;;;;;;5012369;28;20467;-77
2021/12/17 15:15:37;;;;;;;10.33;7.60;;;5.80;99.90;;;;;;5010732;28;20432;-77
2021/12/17 15:18:06;;;;;;;11.30;8.80;;;5.60;99.90;;;;;;5011804;28;20502;-77
2021/12/17 15:20:33;;;;;;;13.27;8.53;;;5.50;99.90;;;;;;5011304;28;20428;-77
2021/12/17 15:23:00;;;;;;;15.97;9.57;;;5.50;99.90;;;;;;5011814;28;20519;-77
2021/12/17 15:25:27;;;;;;;14.60;9.00;;;5.50;99.90;;;;;;5029032;28;20436;-77
2021/12/17 15:27:53;;;;;;;13.27;9.90;;;5.60;99.90;;;;;;5026895;28;20535;-77
2021/12/17 15:30:26;;;;;;;13.53;7.90;;;5.50;99.90;;;;;;5010355;28;20464;-77
2021/12/17 15:32:53;;;;;;;12.77;8.63;;;5.30;99.90;;;;;;5009452;28;20476;-77
2021/12/17 15:35:20;;;;;;;14.33;8.90;;;5.30;99.90;;;;;;5012664;28;20416;-78
2021/12/17 15:37:49;;;;;;;10.47;8.40;;;5.40;99.90;;;;;;4995495;28;20447;-78
2021/12/17 15:40:15;;;;;;;15.40;9.57;;;5.40;99.90;;;;;;5012781;28;21079;-78
2021/12/17 15:42:41;;;;;;;13.37;8.50;;;5.40;99.90;;;;;;5013266;28;20401;-77
2021/12/17 15:45:08;;;;;;;11.50;8.43;;;5.40;99.90;;;;;;5027513;28;21011;-78
2021/12/17 15:47:34;;;;;;;10.23;8.70;;;5.30;99.90;;;;;;5012418;28;20935;-77
2021/12/17 15:50:00;;;;;;;14.53;10.20;;;5.20;99.90;;;;;;5010032;28;20420;-76
2021/12/17 15:52:27;;;;;;;17.13;9.93;;;5.30;99.90;;;;;;5026590;28;20478;-77
2021/12/17 15:54:53;;;;;;;12.73;9.00;;;5.30;99.90;;;;;;5011678;28;20424;-78
2021/12/17 15:57:19;;;;;;;17.30;9.80;;;5.10;99.90;;;;;;5011505;28;20944;-77
2021/12/17 15:59:48;;;;;;;16.00;10.83;;;5.10;99.90;;;;;;5011762;28;20416;-77
2021/12/17 16:02:17;;;;;;;18.30;12.37;;;5.10;99.90;;;;;;5011447;28;20243;-78
2021/12/17 16:04:45;;;;;;;28.23;16.93;;;5.20;99.90;;;;;;5010974;28;20424;-77